createdAt,value
2022-12-03T00:03:05.181Z,101780.20
2022-12-03T00:08:08.525Z,101776.00
2022-12-03T00:13:11.965Z,101781.00
2022-12-03T00:18:15.288Z,101779.60
2022-12-03T00:23:18.586Z,101777.00
2022-12-03T00:28:21.817Z,101776.00
2022-12-03T00:33:25.112Z,101764.40
2022-12-03T00:38:28.223Z,101760.80
2022-12-03T00:43:31.520Z,101765.00
2022-12-03T00:48:35.140Z,101765.60
2022-12-03T00:53:38.965Z,101764.20
2022-12-03T00:58:42.077Z,101757.80
2022-12-03T01:03:45.200Z,101751.20
2022-12-03T01:08:48.383Z,101748.80
2022-12-03T01:13:51.501Z,101753.40
2022-12-03T01:18:54.801Z,101754.60
2022-12-03T01:23:58.116Z,101745.80
2022-12-03T01:29:01.428Z,101737.80
2022-12-03T01:34:05.962Z,101734.60
2022-12-03T01:39:09.319Z,101735.60
2022-12-03T01:44:22.837Z,101741.40
2022-12-03T01:49:43.148Z,101737.60
2022-12-03T01:54:52.006Z,101734.20
2022-12-03T01:59:59.118Z,101737.20
2022-12-03T02:05:15.318Z,101729.80
2022-12-03T02:10:26.791Z,101726.80
2022-12-03T02:15:30.305Z,101724.20
2022-12-03T02:21:12.439Z,101716.80
2022-12-03T02:26:15.841Z,101715.80
2022-12-03T02:31:19.082Z,101714.60
2022-12-03T02:36:22.772Z,101708.60
2022-12-03T02:41:45.125Z,101707.20
2022-12-03T02:46:48.481Z,101703.40
2022-12-03T02:51:51.852Z,101697.40
2022-12-03T02:56:55.266Z,101699.40
2022-12-03T03:01:58.577Z,101700.60
2022-12-03T03:07:01.685Z,101699.80
2022-12-03T03:12:05.608Z,101702.80
2022-12-03T03:17:08.917Z,101700.40
2022-12-03T03:22:12.553Z,101693.20
2022-12-03T03:27:15.748Z,101690.20
2022-12-03T03:32:18.961Z,101691.20
2022-12-03T03:37:22.467Z,101693.60
2022-12-03T03:42:25.986Z,101681.60
2022-12-03T03:47:29.400Z,101684.20
2022-12-03T03:52:33.345Z,101683.20
2022-12-03T03:57:37.077Z,101676.60
2022-12-03T04:02:41.852Z,101669.60
2022-12-03T04:07:45.301Z,101673.00
2022-12-03T04:12:57.636Z,101686.40
2022-12-03T04:18:20.407Z,101682.20
2022-12-03T04:23:29.260Z,101672.80
2022-12-03T04:28:49.444Z,101671.40
2022-12-03T04:34:12.207Z,101668.00
2022-12-03T04:39:15.444Z,101668.60
2022-12-03T04:44:33.777Z,101670.40
2022-12-03T04:49:44.130Z,101673.00
2022-12-03T04:54:47.368Z,101663.80
2022-12-03T04:59:50.475Z,101667.40
2022-12-03T05:04:53.867Z,101667.40
2022-12-03T05:09:57.299Z,101663.60
2022-12-03T05:15:00.615Z,101662.40
2022-12-03T05:20:23.387Z,101657.40
2022-12-03T05:25:26.711Z,101675.80
2022-12-03T05:30:30.404Z,101669.80
2022-12-03T05:35:33.724Z,101657.20
2022-12-03T05:40:36.832Z,101655.80
2022-12-03T05:45:43.006Z,101660.60
2022-12-03T05:50:47.060Z,101650.20
2022-12-03T05:55:50.239Z,101643.80
2022-12-03T06:00:53.347Z,101646.40
2022-12-03T06:05:56.478Z,101638.60
2022-12-03T06:10:59.637Z,101650.60
2022-12-03T06:16:02.841Z,101646.60
2022-12-03T06:21:06.954Z,101649.00
2022-12-03T06:26:11.757Z,101649.60
2022-12-03T06:31:15.004Z,101650.80
2022-12-03T06:36:22.777Z,101648.20
2022-12-03T06:41:26.702Z,101649.80
2022-12-03T06:46:30.547Z,101645.40
2022-12-03T06:51:33.723Z,101643.20
2022-12-03T06:56:41.892Z,101641.00
2022-12-03T07:01:48.186Z,101634.00
2022-12-03T07:06:51.453Z,101644.60
2022-12-03T07:11:54.554Z,101646.00
2022-12-03T07:16:57.763Z,101639.00
2022-12-03T07:22:01.373Z,101640.60
2022-12-03T07:27:04.591Z,101631.00
2022-12-03T07:32:07.787Z,101639.40
2022-12-03T07:37:11.005Z,101639.00
2022-12-03T07:42:14.211Z,101633.20
2022-12-03T07:47:18.338Z,101623.60
2022-12-03T07:52:21.588Z,101624.60
2022-12-03T07:57:24.760Z,101630.20
2022-12-03T08:02:28.051Z,101628.80
2022-12-03T08:07:31.652Z,101630.80
2022-12-03T08:12:42.257Z,101628.60
2022-12-03T08:17:51.726Z,101628.20
2022-12-03T08:22:56.668Z,101635.60
2022-12-03T08:28:12.595Z,101637.40
2022-12-03T08:33:27.689Z,101640.60
2022-12-03T08:38:30.771Z,101631.40
2022-12-03T08:43:42.325Z,101629.20
2022-12-03T08:48:48.961Z,101628.20
2022-12-03T08:54:02.098Z,101629.00
2022-12-03T08:59:27.031Z,101628.00
2022-12-03T09:04:46.444Z,101630.00
2022-12-03T09:09:49.567Z,101622.80
2022-12-03T09:14:53.044Z,101622.60
2022-12-03T09:19:56.654Z,101617.80
2022-12-03T09:25:00.078Z,101623.00
2022-12-03T09:30:04.996Z,101618.00
2022-12-03T09:35:09.291Z,101619.60
2022-12-03T09:40:13.795Z,101620.20
2022-12-03T09:45:18.029Z,101613.80
2022-12-03T09:50:26.639Z,101605.00
2022-12-03T09:55:30.992Z,101605.40
2022-12-03T10:00:34.511Z,101603.40
2022-12-03T10:05:37.814Z,101603.00
2022-12-03T10:10:42.462Z,101596.80
2022-12-03T10:15:46.181Z,101597.80
2022-12-03T10:20:50.206Z,101584.60
2022-12-03T10:25:58.512Z,101585.80
2022-12-03T10:31:06.961Z,101589.60
2022-12-03T10:36:21.128Z,101592.20
2022-12-03T10:41:28.239Z,101591.40
2022-12-03T10:46:31.381Z,101587.20
2022-12-03T10:51:35.277Z,101582.20
2022-12-03T10:56:38.362Z,101579.00
2022-12-03T11:01:41.769Z,101574.20
2022-12-03T11:06:45.292Z,101580.40
2022-12-03T11:11:50.045Z,101574.00
2022-12-03T11:16:53.262Z,101574.20
2022-12-03T11:22:05.783Z,101569.40
2022-12-03T11:27:11.957Z,101563.20
2022-12-03T11:32:43.438Z,101558.00
2022-12-03T11:37:46.744Z,101549.80
2022-12-03T11:42:50.469Z,101548.60
2022-12-03T11:47:59.501Z,101542.20
2022-12-03T11:53:19.403Z,101538.60
2022-12-03T11:58:30.914Z,101538.40
2022-12-03T12:03:43.313Z,101534.40
2022-12-03T12:08:52.621Z,101528.40
2022-12-03T12:14:01.284Z,101530.00
2022-12-03T12:19:49.735Z,101530.40
2022-12-03T12:25:01.708Z,101523.60
2022-12-03T12:30:18.167Z,101524.40
2022-12-03T12:35:27.266Z,101515.20
2022-12-03T12:40:34.222Z,101516.80
2022-12-03T12:45:43.357Z,101524.00
2022-12-03T12:50:52.331Z,101516.60
2022-12-03T12:55:58.645Z,101519.20
2022-12-03T13:01:11.464Z,101527.80
2022-12-03T13:06:16.838Z,101524.60
2022-12-03T13:11:35.481Z,101522.80
2022-12-03T13:16:39.108Z,101525.40
2022-12-03T13:21:45.681Z,101525.40
2022-12-03T13:26:48.766Z,101520.40
2022-12-03T13:32:01.816Z,101513.80
2022-12-03T13:37:16.479Z,101517.40
2022-12-03T13:42:46.587Z,101519.20
2022-12-03T13:47:56.531Z,101511.60
2022-12-03T13:53:40.193Z,101513.60
2022-12-03T13:58:43.222Z,101513.60
2022-12-03T14:03:46.406Z,101509.40
2022-12-03T14:08:49.507Z,101511.80
2022-12-03T14:13:52.502Z,101516.20
2022-12-03T14:18:55.571Z,101518.60
2022-12-03T14:23:58.673Z,101524.80
2022-12-03T14:29:05.973Z,101521.40
2022-12-03T14:34:11.696Z,101521.40
2022-12-03T14:39:14.685Z,101517.20
2022-12-03T14:44:17.792Z,101530.00
2022-12-03T14:49:20.813Z,101522.80
2022-12-03T14:54:24.034Z,101516.20
2022-12-03T14:59:28.035Z,101512.60
2022-12-03T15:04:31.283Z,101511.00
2022-12-03T15:09:35.041Z,101504.60
2022-12-03T15:14:38.295Z,101503.80
2022-12-03T15:19:41.671Z,101500.00
2022-12-03T15:24:44.713Z,101493.20
2022-12-03T15:29:47.780Z,101506.40
2022-12-03T15:34:53.866Z,101501.20
2022-12-03T15:39:57.192Z,101506.00
2022-12-03T15:45:00.480Z,101513.80
2022-12-03T15:50:04.416Z,101511.80
2022-12-03T15:55:08.318Z,101514.20
2022-12-03T16:00:14.172Z,101509.80
2022-12-03T16:05:17.415Z,101508.20
2022-12-03T16:10:21.635Z,101511.80
2022-12-03T16:15:27.240Z,101518.40
2022-12-03T16:20:30.649Z,101511.40
2022-12-03T16:25:34.016Z,101511.40
2022-12-03T16:30:37.395Z,101512.80
2022-12-03T16:35:40.557Z,101523.40
2022-12-03T16:40:43.690Z,101513.60
2022-12-03T16:46:03.089Z,101519.80
2022-12-03T16:51:06.832Z,101509.60
2022-12-03T16:56:09.981Z,101523.00
2022-12-03T17:01:13.574Z,101533.60
2022-12-03T17:06:17.473Z,101534.80
2022-12-03T17:11:20.661Z,101528.00
2022-12-03T17:16:23.987Z,101526.00
2022-12-03T17:21:29.763Z,101525.40
2022-12-03T17:26:36.655Z,101523.80
2022-12-03T17:31:42.182Z,101534.00
2022-12-03T17:36:46.257Z,101529.00
2022-12-03T17:41:49.579Z,101529.60
2022-12-03T17:46:52.969Z,101536.60
2022-12-03T17:51:56.360Z,101536.40
2022-12-03T17:56:59.675Z,101530.40
2022-12-03T18:02:03.111Z,101526.60
2022-12-03T18:07:07.138Z,101519.00
2022-12-03T18:12:10.382Z,101530.80
2022-12-03T18:17:14.533Z,101535.00
2022-12-03T18:22:18.119Z,101528.80
2022-12-03T18:27:23.509Z,101526.20
2022-12-03T18:32:29.909Z,101525.20
2022-12-03T18:37:35.718Z,101532.80
2022-12-03T18:42:42.094Z,101529.40
2022-12-03T18:47:47.745Z,101533.80
2022-12-03T18:52:54.031Z,101528.60
2022-12-03T18:57:59.751Z,101520.60
2022-12-03T19:03:05.097Z,101518.40
2022-12-03T19:08:14.833Z,101516.60
2022-12-03T19:13:20.796Z,101509.60
2022-12-03T19:18:26.100Z,101507.20
2022-12-03T19:23:31.592Z,101516.40
2022-12-03T19:38:00.570Z,101527.80
2022-12-03T19:43:03.974Z,101526.00
2022-12-03T19:48:07.727Z,101525.60
2022-12-03T19:53:11.015Z,101531.60
2022-12-03T19:58:14.465Z,101529.00
2022-12-03T20:03:17.631Z,101532.20
2022-12-03T20:08:21.391Z,101537.60
2022-12-03T20:13:24.774Z,101538.60
2022-12-03T20:18:28.195Z,101545.00
2022-12-03T20:23:31.597Z,101536.40
2022-12-03T20:28:34.793Z,101530.80
2022-12-03T20:33:40.471Z,101529.60
2022-12-03T20:38:44.535Z,101535.00
2022-12-03T20:43:48.625Z,101528.80
2022-12-03T20:48:54.381Z,101530.40
2022-12-03T20:54:00.953Z,101536.20
2022-12-03T20:59:08.385Z,101534.00
2022-12-03T21:04:18.272Z,101534.80
2022-12-03T21:09:21.467Z,101535.00
2022-12-03T21:14:25.117Z,101534.60
2022-12-03T21:19:28.494Z,101532.80
2022-12-03T21:24:32.416Z,101531.80
2022-12-03T21:29:35.652Z,101525.00
2022-12-03T21:34:39.352Z,101522.00
2022-12-03T21:39:42.555Z,101515.20
2022-12-03T21:44:45.841Z,101515.60
2022-12-03T21:49:49.203Z,101514.00
2022-12-03T21:54:53.847Z,101511.20
2022-12-03T21:59:57.436Z,101517.60
2022-12-03T22:05:01.160Z,101519.00
2022-12-03T22:10:08.325Z,101519.60
2022-12-03T22:15:16.764Z,101521.80
2022-12-03T22:20:22.454Z,101526.80
2022-12-03T22:25:25.870Z,101527.60
2022-12-03T22:30:29.001Z,101525.20
2022-12-03T22:35:32.178Z,101514.80
2022-12-03T22:40:35.393Z,101521.40
2022-12-03T22:45:38.700Z,101527.80
2022-12-03T22:50:47.027Z,101521.80
2022-12-03T22:56:00.374Z,101520.60
2022-12-03T23:01:03.887Z,101517.80
2022-12-03T23:06:11.371Z,101518.80
2022-12-03T23:11:15.523Z,101515.80
2022-12-03T23:16:27.535Z,101516.60
2022-12-03T23:21:34.661Z,101511.40
2022-12-03T23:26:39.619Z,101517.40
2022-12-03T23:31:42.857Z,101511.60
2022-12-03T23:36:46.112Z,101515.20
2022-12-03T23:41:52.919Z,101507.80
2022-12-03T23:46:56.104Z,101518.20
2022-12-03T23:51:59.636Z,101516.40
2022-12-03T23:57:03.482Z,101521.60
